createdAt,value
2023-03-06T00:02:22.491Z,99475.47
2023-03-06T00:04:52.637Z,99475.56
2023-03-06T00:07:21.574Z,99472.31
2023-03-06T00:09:50.486Z,99471.34
2023-03-06T00:12:19.360Z,99468.59
2023-03-06T00:14:48.424Z,99470.80
2023-03-06T00:17:17.249Z,99471.75
2023-03-06T00:19:46.081Z,99472.20
2023-03-06T00:22:15.331Z,99470.85
2023-03-06T00:24:44.222Z,99472.84
2023-03-06T00:27:12.897Z,99473.23
2023-03-06T00:29:41.802Z,99473.17
2023-03-06T00:32:10.550Z,99475.01
2023-03-06T00:34:39.370Z,99473.92
2023-03-06T00:37:08.194Z,99472.09
2023-03-06T00:39:37.056Z,99472.17
2023-03-06T00:42:08.478Z,99474.71
2023-03-06T00:44:41.591Z,99470.58
2023-03-06T00:47:10.657Z,99472.79
2023-03-06T00:49:40.459Z,99471.96
2023-03-06T00:52:10.821Z,99474.16
2023-03-06T00:54:40.535Z,99473.53
2023-03-06T00:57:09.484Z,99469.39
2023-03-06T00:59:38.484Z,99469.38
2023-03-06T01:02:08.768Z,99473.70
2023-03-06T01:04:37.458Z,99470.21
2023-03-06T01:07:06.402Z,99469.90
2023-03-06T01:09:35.094Z,99467.88
2023-03-06T01:12:04.292Z,99463.43
2023-03-06T01:14:33.019Z,99461.95
2023-03-06T01:17:02.057Z,99461.36
2023-03-06T01:19:30.937Z,99458.45
2023-03-06T01:21:59.624Z,99461.73
2023-03-06T01:24:28.462Z,99459.01
2023-03-06T01:27:01.712Z,99456.20
2023-03-06T01:29:30.673Z,99457.11
2023-03-06T01:31:59.415Z,99456.14
2023-03-06T01:34:28.824Z,99455.67
2023-03-06T01:36:58.261Z,99456.19
2023-03-06T01:39:28.222Z,99454.90
2023-03-06T01:41:57.520Z,99450.51
2023-03-06T01:44:26.369Z,99447.59
2023-03-06T01:46:55.852Z,99448.11
2023-03-06T01:49:30.587Z,99446.23
2023-03-06T01:52:08.395Z,99444.93
2023-03-06T01:54:44.687Z,99448.11
2023-03-06T01:57:26.430Z,99444.71
2023-03-06T02:00:02.526Z,99442.42
2023-03-06T02:02:44.845Z,99443.73
2023-03-06T02:05:18.578Z,99442.27
2023-03-06T02:07:56.691Z,99443.79
2023-03-06T02:10:25.824Z,99444.43
2023-03-06T02:12:54.706Z,99443.17
2023-03-06T02:15:28.057Z,99444.40
2023-03-06T02:17:59.878Z,99441.05
2023-03-06T02:20:39.059Z,99441.34
2023-03-06T02:23:14.706Z,99437.32
2023-03-06T02:25:48.329Z,99439.51
2023-03-06T02:28:20.252Z,99439.90
2023-03-06T02:30:51.571Z,99440.36
2023-03-06T02:33:23.506Z,99441.17
2023-03-06T02:35:55.224Z,99439.17
2023-03-06T02:38:28.129Z,99440.52
2023-03-06T02:40:58.895Z,99438.35
2023-03-06T02:43:34.084Z,99435.04
2023-03-06T02:46:06.028Z,99439.27
2023-03-06T02:48:36.082Z,99438.89
2023-03-06T02:51:05.199Z,99440.61
2023-03-06T02:53:34.321Z,99442.09
2023-03-06T02:56:03.099Z,99441.13
2023-03-06T02:58:31.927Z,99439.73
2023-03-06T03:01:02.144Z,99435.58
2023-03-06T03:03:32.674Z,99437.16
2023-03-06T03:06:08.227Z,99437.97
2023-03-06T03:08:38.904Z,99433.52
2023-03-06T03:11:08.624Z,99430.39
2023-03-06T03:13:45.757Z,99432.20
2023-03-06T03:16:21.730Z,99434.71
2023-03-06T03:18:52.236Z,99434.21
2023-03-06T03:21:23.887Z,99432.75
2023-03-06T03:23:59.252Z,99432.36
2023-03-06T03:26:30.591Z,99431.63
2023-03-06T03:29:06.658Z,99436.55
2023-03-06T03:31:36.352Z,99435.93
2023-03-06T03:34:05.442Z,99437.45
2023-03-06T03:36:37.679Z,99434.33
2023-03-06T03:39:08.224Z,99432.73
2023-03-06T03:41:37.313Z,99432.28
2023-03-06T03:44:08.494Z,99429.43
2023-03-06T03:46:42.776Z,99431.95
2023-03-06T03:49:17.352Z,99431.30
2023-03-06T03:51:47.360Z,99428.75
2023-03-06T03:54:31.791Z,99431.67
2023-03-06T03:57:02.230Z,99429.95
2023-03-06T03:59:34.480Z,99430.02
2023-03-06T04:02:11.975Z,99428.59
2023-03-06T04:04:48.902Z,99427.66
2023-03-06T04:07:21.317Z,99427.50
2023-03-06T04:09:51.442Z,99424.04
2023-03-06T04:12:20.482Z,99422.23
2023-03-06T04:14:49.718Z,99422.35
2023-03-06T04:17:19.897Z,99421.61
2023-03-06T04:19:53.351Z,99423.77
2023-03-06T04:22:21.985Z,99421.98
2023-03-06T04:24:55.587Z,99420.95
2023-03-06T04:27:25.577Z,99420.40
2023-03-06T04:29:56.271Z,99417.58
2023-03-06T04:32:26.302Z,99413.91
2023-03-06T04:34:58.754Z,99413.67
2023-03-06T04:37:28.260Z,99411.39
2023-03-06T04:39:58.726Z,99408.84
2023-03-06T04:42:27.504Z,99406.80
2023-03-06T04:44:58.698Z,99409.32
2023-03-06T04:47:42.213Z,99409.72
2023-03-06T04:50:18.604Z,99404.88
2023-03-06T04:52:56.358Z,99405.98
2023-03-06T04:55:28.522Z,99405.79
2023-03-06T04:58:02.606Z,99404.64
2023-03-06T05:00:31.889Z,99401.78
2023-03-06T05:03:01.674Z,99401.79
2023-03-06T05:05:36.975Z,99399.77
2023-03-06T05:08:08.553Z,99401.75
2023-03-06T05:10:37.756Z,99400.55
2023-03-06T05:13:16.307Z,99402.06
2023-03-06T05:15:45.290Z,99400.68
2023-03-06T05:18:14.434Z,99397.98
2023-03-06T05:20:43.532Z,99398.14
2023-03-06T05:23:12.817Z,99398.73
2023-03-06T05:25:42.454Z,99399.69
2023-03-06T05:28:13.750Z,99400.48
2023-03-06T05:30:42.756Z,99402.59
2023-03-06T05:33:11.386Z,99399.86
2023-03-06T05:35:48.468Z,99400.77
2023-03-06T05:38:17.606Z,99400.69
2023-03-06T05:40:46.476Z,99401.65
2023-03-06T05:43:21.405Z,99399.83
2023-03-06T05:45:52.321Z,99402.04
2023-03-06T05:48:23.853Z,99402.30
2023-03-06T05:50:57.598Z,99405.11
2023-03-06T05:53:27.368Z,99405.34
2023-03-06T05:56:00.773Z,99408.49
2023-03-06T05:58:30.687Z,99412.08
2023-03-06T06:01:00.636Z,99413.27
2023-03-06T06:03:29.433Z,99409.47
2023-03-06T06:05:59.112Z,99409.65
2023-03-06T06:08:28.136Z,99407.33
2023-03-06T06:10:58.365Z,99408.29
2023-03-06T06:13:27.958Z,99409.02
2023-03-06T06:15:58.199Z,99409.01
2023-03-06T06:18:27.307Z,99407.89
2023-03-06T06:20:57.125Z,99410.21
2023-03-06T06:23:25.965Z,99412.35
2023-03-06T06:25:58.704Z,99412.42
2023-03-06T06:28:28.664Z,99410.02
2023-03-06T06:30:59.811Z,99411.81
2023-03-06T06:33:28.616Z,99409.38
2023-03-06T06:35:59.238Z,99412.05
2023-03-06T06:38:27.941Z,99416.44
2023-03-06T06:41:30.773Z,99416.42
2023-03-06T06:43:46.057Z,99416.58
2023-03-06T06:46:47.180Z,99417.49
2023-03-06T06:49:05.122Z,99416.48
2023-03-06T06:51:34.292Z,99412.20
2023-03-06T06:54:03.129Z,99411.50
2023-03-06T06:56:32.026Z,99410.20
2023-03-06T06:59:15.317Z,99406.86
2023-03-06T07:01:52.295Z,99402.97
2023-03-06T07:04:21.557Z,99399.42
2023-03-06T07:06:50.501Z,99399.03
2023-03-06T07:09:19.494Z,99393.25
2023-03-06T07:11:49.169Z,99392.98
2023-03-06T07:14:18.174Z,99393.16
2023-03-06T07:16:49.532Z,99390.90
2023-03-06T07:19:18.211Z,99390.77
2023-03-06T07:21:46.968Z,99393.36
2023-03-06T07:24:16.278Z,99393.31
2023-03-06T07:26:48.343Z,99392.73
2023-03-06T07:29:17.198Z,99389.81
2023-03-06T07:31:48.071Z,99393.39
2023-03-06T07:34:16.793Z,99392.52
2023-03-06T07:36:46.091Z,99395.87
2023-03-06T07:39:14.868Z,99393.70
2023-03-06T07:41:44.051Z,99390.51
2023-03-06T07:44:12.828Z,99391.30
2023-03-06T07:46:58.439Z,99395.27
2023-03-06T07:49:27.114Z,99393.69
2023-03-06T07:51:57.866Z,99394.56
2023-03-06T07:54:26.605Z,99389.02
2023-03-06T07:56:58.258Z,99385.84
2023-03-06T07:59:27.000Z,99385.64
2023-03-06T08:01:58.454Z,99380.02
2023-03-06T08:04:29.026Z,99381.61
2023-03-06T08:07:00.398Z,99378.58
2023-03-06T08:09:29.568Z,99378.62
2023-03-06T08:12:00.402Z,99379.42
2023-03-06T08:14:29.250Z,99381.42
2023-03-06T08:16:58.869Z,99378.51
2023-03-06T08:19:27.550Z,99381.27
2023-03-06T08:21:56.962Z,99374.94
2023-03-06T08:24:25.606Z,99377.05
2023-03-06T08:26:54.204Z,99380.73
2023-03-06T08:29:23.660Z,99381.91
2023-03-06T08:31:53.070Z,99382.05
2023-03-06T08:34:24.015Z,99378.88
2023-03-06T08:36:53.584Z,99378.36
2023-03-06T08:39:59.550Z,99376.20
2023-03-06T08:42:28.736Z,99373.48
2023-03-06T08:44:57.898Z,99366.90
2023-03-06T08:47:26.729Z,99364.77
2023-03-06T08:49:56.349Z,99363.23
2023-03-06T08:52:25.016Z,99361.38
2023-03-06T08:55:02.819Z,99359.26
2023-03-06T08:57:31.808Z,99355.92
2023-03-06T09:00:08.121Z,99355.09
2023-03-06T09:02:37.028Z,99357.30
2023-03-06T09:05:07.328Z,99356.84
2023-03-06T09:07:38.885Z,99358.95
2023-03-06T09:10:16.501Z,99357.39
2023-03-06T09:12:55.104Z,99358.85
2023-03-06T09:15:25.517Z,99358.44
2023-03-06T09:17:54.350Z,99355.02
2023-03-06T09:20:23.844Z,99354.23
2023-03-06T09:22:56.531Z,99357.78
2023-03-06T09:25:25.398Z,99359.95
2023-03-06T09:28:10.103Z,99360.05
2023-03-06T09:30:41.300Z,99361.60
2023-03-06T09:33:13.067Z,99362.10
2023-03-06T09:35:45.171Z,99361.45
2023-03-06T09:38:14.007Z,99360.30
2023-03-06T09:41:06.159Z,99359.07
2023-03-06T09:43:38.034Z,99359.59
2023-03-06T09:46:20.122Z,99359.04
2023-03-06T09:49:00.510Z,99359.20
2023-03-06T09:51:41.041Z,99356.79
2023-03-06T09:54:13.646Z,99352.92
2023-03-06T09:56:47.315Z,99354.01
2023-03-06T09:59:20.059Z,99345.13
2023-03-06T10:02:00.192Z,99347.02
2023-03-06T10:04:37.988Z,99343.51
2023-03-06T10:07:14.927Z,99340.65
2023-03-06T10:09:53.927Z,99337.09
2023-03-06T10:12:31.467Z,99336.33
2023-03-06T10:15:16.791Z,99335.07
2023-03-06T10:17:48.120Z,99332.00
2023-03-06T10:20:23.394Z,99334.65
2023-03-06T10:23:35.427Z,99332.95
2023-03-06T10:26:12.861Z,99328.44
2023-03-06T10:28:46.442Z,99322.88
2023-03-06T10:31:22.406Z,99325.89
2023-03-06T10:33:56.215Z,99325.98
2023-03-06T10:36:27.449Z,99327.73
2023-03-06T10:38:59.875Z,99325.67
2023-03-06T10:41:30.783Z,99321.56
2023-03-06T10:44:22.944Z,99321.17
2023-03-06T10:46:56.334Z,99319.50
2023-03-06T10:49:31.003Z,99316.22
2023-03-06T10:52:03.700Z,99311.26
2023-03-06T10:54:35.552Z,99309.34
2023-03-06T10:57:24.540Z,99307.20
2023-03-06T10:59:57.597Z,99303.33
2023-03-06T11:02:30.436Z,99298.27
2023-03-06T11:05:01.292Z,99292.38
2023-03-06T11:07:31.279Z,99294.44
2023-03-06T11:10:16.726Z,99288.17
2023-03-06T11:12:59.059Z,99285.52
2023-03-06T11:15:34.848Z,99287.20
2023-03-06T11:18:25.609Z,99284.64
2023-03-06T11:20:58.264Z,99276.79
2023-03-06T11:23:37.119Z,99274.11
2023-03-06T11:26:22.803Z,99269.65
2023-03-06T11:29:01.820Z,99265.72
2023-03-06T11:31:34.779Z,99262.09
2023-03-06T11:34:13.299Z,99255.98
2023-03-06T11:36:47.796Z,99250.08
2023-03-06T11:39:24.402Z,99249.95
2023-03-06T11:42:03.221Z,99244.25
2023-03-06T11:44:43.733Z,99238.91
2023-03-06T11:47:20.766Z,99234.77
2023-03-06T11:50:05.134Z,99233.54
2023-03-06T11:52:46.283Z,99228.77
2023-03-06T11:55:20.688Z,99227.05
2023-03-06T11:57:59.563Z,99224.27
2023-03-06T12:00:42.101Z,99227.13
2023-03-06T12:03:33.599Z,99225.02
2023-03-06T12:06:08.836Z,99221.08
2023-03-06T12:08:47.082Z,99219.62
2023-03-06T12:11:23.024Z,99223.72
2023-03-06T12:14:28.727Z,99217.10
2023-03-06T12:17:10.807Z,99211.80
2023-03-06T12:20:06.666Z,99211.21
2023-03-06T12:22:58.014Z,99211.10
2023-03-06T12:25:36.917Z,99206.81
2023-03-06T12:28:26.164Z,99206.89
2023-03-06T12:31:12.187Z,99198.80
2023-03-06T12:33:49.434Z,99201.28
2023-03-06T12:36:32.260Z,99200.11
2023-03-06T12:39:12.225Z,99196.82
2023-03-06T12:42:23.013Z,99198.75
2023-03-06T12:45:16.706Z,99193.02
2023-03-06T12:47:47.916Z,99189.73
2023-03-06T12:50:22.241Z,99190.48
2023-03-06T12:52:57.420Z,99185.76
2023-03-06T12:55:26.576Z,99183.65
2023-03-06T12:57:56.280Z,99179.95
2023-03-06T13:01:04.243Z,99176.05
2023-03-06T13:03:53.016Z,99177.89
2023-03-06T13:06:39.166Z,99178.43
2023-03-06T13:09:20.033Z,99184.80
2023-03-06T13:12:17.609Z,99182.38
2023-03-06T13:15:32.145Z,99179.86
2023-03-06T13:18:57.039Z,99171.39
2023-03-06T13:22:00.839Z,99165.13
2023-03-06T13:24:32.924Z,99162.60
2023-03-06T13:27:07.657Z,99163.16
2023-03-06T13:30:19.933Z,99163.27
2023-03-06T13:32:52.096Z,99162.56
2023-03-06T13:35:52.739Z,99158.28
2023-03-06T13:38:36.127Z,99159.60
2023-03-06T13:41:40.461Z,99158.98
2023-03-06T13:44:49.092Z,99151.73
2023-03-06T13:48:02.829Z,99149.92
2023-03-06T13:50:34.279Z,99150.64
2023-03-06T13:53:27.018Z,99151.71
2023-03-06T13:56:07.779Z,99144.59
2023-03-06T13:58:53.317Z,99143.87
2023-03-06T14:01:35.696Z,99139.89
2023-03-06T14:04:37.457Z,99135.31
2023-03-06T14:07:22.499Z,99140.17
2023-03-06T14:10:13.920Z,99136.95
2023-03-06T14:12:56.593Z,99136.32
2023-03-06T14:15:28.813Z,99135.59
2023-03-06T14:18:02.700Z,99133.42
2023-03-06T14:20:42.674Z,99131.95
2023-03-06T14:23:25.945Z,99128.66
2023-03-06T14:26:07.769Z,99130.52
2023-03-06T14:28:37.336Z,99125.65
2023-03-06T14:31:06.683Z,99124.42
2023-03-06T14:33:43.018Z,99126.02
2023-03-06T14:36:16.907Z,99126.63
2023-03-06T14:38:48.246Z,99124.22
2023-03-06T14:41:25.010Z,99125.90
2023-03-06T14:44:06.772Z,99122.39
2023-03-06T14:46:39.708Z,99126.06
2023-03-06T14:49:12.189Z,99125.16
2023-03-06T14:51:44.713Z,99122.09
2023-03-06T14:54:18.837Z,99120.50
2023-03-06T14:56:51.215Z,99124.45
2023-03-06T14:59:25.214Z,99122.30
2023-03-06T15:02:00.724Z,99122.89
2023-03-06T15:04:36.878Z,99118.96
2023-03-06T15:07:10.540Z,99119.33
2023-03-06T15:09:43.811Z,99120.91
2023-03-06T15:12:34.621Z,99121.88
2023-03-06T15:15:24.272Z,99123.53
2023-03-06T15:17:53.874Z,99124.89
2023-03-06T15:20:46.957Z,99123.12
2023-03-06T15:23:22.293Z,99121.41
2023-03-06T15:25:57.321Z,99122.41
2023-03-06T15:28:33.831Z,99120.46
2023-03-06T15:31:18.678Z,99115.30
2023-03-06T15:34:04.253Z,99120.40
2023-03-06T15:36:34.826Z,99120.27
2023-03-06T15:39:35.371Z,99118.85
2023-03-06T15:42:18.524Z,99121.97
2023-03-06T15:44:52.909Z,99121.66
2023-03-06T15:47:23.422Z,99116.52
2023-03-06T15:49:52.606Z,99114.98
2023-03-06T15:52:22.299Z,99116.10
2023-03-06T15:54:54.200Z,99116.98
2023-03-06T15:57:25.908Z,99114.93
2023-03-06T15:59:56.768Z,99116.73
2023-03-06T16:02:25.596Z,99116.70
2023-03-06T16:04:54.309Z,99115.06
2023-03-06T16:07:23.311Z,99117.22
2023-03-06T16:09:53.988Z,99119.61
2023-03-06T16:12:22.959Z,99122.34
2023-03-06T16:14:51.723Z,99121.77
2023-03-06T16:17:20.370Z,99119.98
2023-03-06T16:19:50.016Z,99123.51
2023-03-06T16:22:18.744Z,99123.71
2023-03-06T16:24:47.390Z,99123.51
2023-03-06T16:27:18.336Z,99127.27
2023-03-06T16:29:46.917Z,99124.29
2023-03-06T16:32:16.783Z,99125.83
2023-03-06T16:34:45.696Z,99124.82
2023-03-06T16:37:14.600Z,99127.54
2023-03-06T16:39:43.444Z,99127.07
2023-03-06T16:42:12.544Z,99127.73
2023-03-06T16:44:41.207Z,99127.17
2023-03-06T16:47:11.690Z,99129.91
2023-03-06T16:49:40.362Z,99129.30
2023-03-06T16:52:10.953Z,99127.34
2023-03-06T16:54:39.606Z,99131.95
2023-03-06T16:57:13.620Z,99129.05
2023-03-06T16:59:42.721Z,99129.24
2023-03-06T17:02:12.215Z,99135.52
2023-03-06T17:04:40.855Z,99132.54
2023-03-06T17:07:10.254Z,99131.84
2023-03-06T17:09:38.892Z,99130.05
2023-03-06T17:12:09.438Z,99133.89
2023-03-06T17:14:38.230Z,99136.20
2023-03-06T17:17:07.101Z,99133.18
2023-03-06T17:19:35.806Z,99131.83
2023-03-06T17:22:04.828Z,99131.64
2023-03-06T17:24:34.940Z,99129.95
2023-03-06T17:27:03.756Z,99131.14
2023-03-06T17:29:32.509Z,99129.19
2023-03-06T17:32:01.268Z,99135.28
2023-03-06T17:34:30.062Z,99128.89
2023-03-06T17:37:00.710Z,99125.05
2023-03-06T17:39:33.896Z,99128.13
2023-03-06T17:42:03.643Z,99128.33
2023-03-06T17:44:33.764Z,99128.86
2023-03-06T17:47:02.745Z,99130.13
2023-03-06T17:49:31.841Z,99126.08
2023-03-06T17:52:02.289Z,99125.27
2023-03-06T17:54:32.570Z,99121.02
2023-03-06T17:57:03.024Z,99121.83
2023-03-06T17:59:33.945Z,99126.20
2023-03-06T18:02:03.291Z,99126.85
2023-03-06T18:04:32.259Z,99125.54
2023-03-06T18:07:01.123Z,99121.40
2023-03-06T18:09:30.215Z,99124.58
2023-03-06T18:12:00.129Z,99119.31
2023-03-06T18:14:29.372Z,99122.48
2023-03-06T18:16:59.680Z,99124.61
2023-03-06T18:19:28.993Z,99123.42
2023-03-06T18:21:59.977Z,99126.44
2023-03-06T18:24:29.077Z,99125.33
2023-03-06T18:26:58.544Z,99128.35
2023-03-06T18:29:27.689Z,99126.70
2023-03-06T18:31:58.751Z,99129.88
2023-03-06T18:34:27.765Z,99128.30
2023-03-06T18:36:57.681Z,99124.43
2023-03-06T18:39:27.344Z,99127.89
2023-03-06T18:41:57.776Z,99128.27
2023-03-06T18:44:28.514Z,99130.20
2023-03-06T18:46:59.883Z,99130.34
2023-03-06T18:49:29.265Z,99127.83
2023-03-06T18:52:00.962Z,99127.52
2023-03-06T18:54:30.188Z,99127.45
2023-03-06T18:57:00.428Z,99127.42
2023-03-06T18:59:30.253Z,99125.81
2023-03-06T19:01:59.975Z,99120.36
2023-03-06T19:04:29.024Z,99119.80
2023-03-06T19:06:58.781Z,99117.76
2023-03-06T19:09:28.013Z,99116.55
2023-03-06T19:12:00.093Z,99116.03
2023-03-06T19:14:29.214Z,99116.23
2023-03-06T19:16:58.984Z,99112.02
2023-03-06T19:19:28.858Z,99113.14
2023-03-06T19:21:59.982Z,99113.63
2023-03-06T19:24:28.962Z,99112.29
2023-03-06T19:26:58.644Z,99112.07
2023-03-06T19:29:28.014Z,99107.93
2023-03-06T19:32:00.142Z,99109.28
2023-03-06T19:34:29.129Z,99108.03
2023-03-06T19:37:02.261Z,99111.88
2023-03-06T19:39:36.103Z,99110.51
2023-03-06T19:42:13.899Z,99109.20
2023-03-06T19:44:45.369Z,99110.35
2023-03-06T19:47:14.990Z,99107.92
2023-03-06T19:49:44.702Z,99106.34
2023-03-06T19:52:18.469Z,99105.69
2023-03-06T19:54:47.780Z,99105.04
2023-03-06T19:57:21.790Z,99101.83
2023-03-06T19:59:52.752Z,99105.29
2023-03-06T20:02:27.255Z,99105.41
2023-03-06T20:05:00.328Z,99106.36
2023-03-06T20:07:35.941Z,99107.14
2023-03-06T20:10:06.838Z,99107.81
2023-03-06T20:12:38.292Z,99107.32
2023-03-06T20:15:20.079Z,99109.80
2023-03-06T20:17:50.857Z,99110.46
2023-03-06T20:20:21.166Z,99111.23
2023-03-06T20:22:58.329Z,99112.50
2023-03-06T20:25:28.796Z,99111.95
2023-03-06T20:28:01.096Z,99110.78
2023-03-06T20:30:37.805Z,99108.46
2023-03-06T20:33:10.090Z,99106.10
2023-03-06T20:35:49.392Z,99104.14
2023-03-06T20:38:19.252Z,99104.99
2023-03-06T20:40:54.097Z,99107.38
2023-03-06T20:43:27.670Z,99110.39
2023-03-06T20:45:59.699Z,99109.07
2023-03-06T20:48:29.990Z,99109.27
2023-03-06T20:51:02.942Z,99108.73
2023-03-06T20:53:34.444Z,99107.52
2023-03-06T20:56:03.364Z,99109.14
2023-03-06T20:58:32.331Z,99109.42
2023-03-06T21:01:02.468Z,99110.23
2023-03-06T21:03:31.248Z,99110.29
2023-03-06T21:06:00.222Z,99112.11
2023-03-06T21:08:29.075Z,99108.51
2023-03-06T21:10:58.769Z,99108.20
2023-03-06T21:13:28.410Z,99102.14
2023-03-06T21:15:58.096Z,99102.30
2023-03-06T21:18:27.074Z,99102.48
2023-03-06T21:20:55.694Z,99100.48
2023-03-06T21:23:25.495Z,99106.48
2023-03-06T21:25:54.425Z,99104.64
2023-03-06T21:28:27.012Z,99099.95
2023-03-06T21:30:59.300Z,99099.94
2023-03-06T21:33:28.506Z,99097.99
2023-03-06T21:35:57.977Z,99092.88
2023-03-06T21:38:27.325Z,99094.12
2023-03-06T21:40:57.170Z,99093.09
2023-03-06T21:43:25.928Z,99098.57
2023-03-06T21:45:58.806Z,99099.36
2023-03-06T21:48:27.576Z,99095.95
2023-03-06T21:51:05.393Z,99097.39
2023-03-06T21:53:36.149Z,99099.86
2023-03-06T21:56:06.126Z,99099.84
2023-03-06T21:58:35.261Z,99096.98
2023-03-06T22:01:09.469Z,99101.16
2023-03-06T22:03:38.692Z,99104.85
2023-03-06T22:06:12.285Z,99106.55
2023-03-06T22:08:41.532Z,99106.57
2023-03-06T22:11:12.884Z,99108.82
2023-03-06T22:13:42.586Z,99109.52
2023-03-06T22:16:11.957Z,99107.08
2023-03-06T22:18:43.834Z,99110.48
2023-03-06T22:21:14.981Z,99114.92
2023-03-06T22:23:44.295Z,99117.83
2023-03-06T22:26:15.026Z,99114.46
2023-03-06T22:28:43.667Z,99115.71
2023-03-06T22:31:14.410Z,99115.17
2023-03-06T22:33:43.648Z,99116.45
2023-03-06T22:36:15.039Z,99113.61
2023-03-06T22:38:45.536Z,99120.30
2023-03-06T22:41:16.249Z,99121.68
2023-03-06T22:43:45.156Z,99123.27
2023-03-06T22:46:15.842Z,99125.19
2023-03-06T22:48:45.312Z,99127.64
2023-03-06T22:51:16.678Z,99130.11
2023-03-06T22:53:46.316Z,99133.02
2023-03-06T22:56:17.964Z,99133.43
2023-03-06T22:58:46.661Z,99134.83
2023-03-06T23:01:17.016Z,99139.92
2023-03-06T23:03:47.472Z,99142.73
2023-03-06T23:06:17.610Z,99142.48
2023-03-06T23:08:51.702Z,99142.22
2023-03-06T23:11:24.327Z,99140.88
2023-03-06T23:14:12.963Z,99144.70
2023-03-06T23:17:00.189Z,99146.85
2023-03-06T23:19:50.342Z,99146.74
2023-03-06T23:22:37.721Z,99146.02
2023-03-06T23:25:28.553Z,99153.60
2023-03-06T23:28:01.269Z,99155.45
2023-03-06T23:30:30.887Z,99158.17
2023-03-06T23:33:00.891Z,99160.75
2023-03-06T23:35:31.882Z,99163.35
2023-03-06T23:38:01.887Z,99167.39
2023-03-06T23:40:33.158Z,99167.96
2023-03-06T23:43:02.282Z,99169.28
2023-03-06T23:45:31.456Z,99168.39
2023-03-06T23:48:00.352Z,99169.20
2023-03-06T23:50:29.530Z,99172.91
2023-03-06T23:53:03.007Z,99176.49
2023-03-06T23:55:32.092Z,99176.95
2023-03-06T23:58:01.731Z,99172.33
